This is the latest recevied weather packets stored in our database for station/object VE7GEL. If no packets are shown the sender has not sent any weather packets the latest 10 day(s).
| Time | Temp. | Humidity | Pressure | Rain* | Wind** | Luminosity | Snow |
|---|---|---|---|---|---|---|---|
| 1777265060 | 12.78° C | 77% | 1009.9 hPa | 0 mm | - | 0 W/m² | - |
| 1777264157 | 13.33° C | 72% | 1009.8 hPa | 0 mm | - | 0 W/m² | - |
| 1777263303 | 13.89° C | 73% | 1010 hPa | 0 mm | - | 0 W/m² | - |
| 1777263257 | 13.89° C | 73% | 1009.7 hPa | 0 mm | - | 0 W/m² | - |
| 1777262354 | 13.33° C | 72% | 1009.5 hPa | 0 mm | - | 0 W/m² | - |
| 1777261502 | 13.89° C | 72% | 1009.7 hPa | 0 mm | - | 0 W/m² | - |
| 1777261455 | 13.89° C | 72% | 1009.4 hPa | 0 mm | - | 0 W/m² | - |
| 1777260555 | 13.89° C | 69% | 1009.2 hPa | 0 mm | - | 0 W/m² | - |
| 1777259702 | 13.33° C | 70% | 1009.4 hPa | 0 mm | - | 4 W/m² | - |
| 1777259655 | 13.33° C | 70% | 1009.1 hPa | 0 mm | - | 4 W/m² | - |
| 1777258753 | 13.89° C | 68% | 1009.1 hPa | 0 mm | - | 9 W/m² | - |
| 1777257854 | 14.44° C | 68% | 1009 hPa | 0 mm | - | 16 W/m² | - |
| 1777256952 | 13.89° C | 68% | 1008.9 hPa | 0 mm | - | 26 W/m² | - |
| 1777256053 | 15.56° C | 58% | 1009.2 hPa | 0 mm | - | 106 W/m² | - |
| 1777255151 | 15° C | 60% | 1009.1 hPa | 0 mm | - | 138 W/m² | - |
| 1777254303 | 15° C | 60% | 1009.4 hPa | 0 mm | - | 213 W/m² | - |
| 1777254251 | 15° C | 60% | 1009.1 hPa | 0 mm | - | 213 W/m² | - |
| 1777253352 | 16.11° C | 50% | 1009.1 hPa | 0 mm | - | 78 W/m² | - |
| 1777252502 | 16.67° C | 48% | 1009.4 hPa | 0 mm | - | 317 W/m² | - |
| 1777252451 | 16.67° C | 48% | 1009.1 hPa | 0 mm | - | 317 W/m² | - |
| 1777251553 | 15.56° C | 50% | 1009.2 hPa | 0 mm | - | 426 W/m² | - |
| 1777250703 | 15.56° C | 55% | 1009.5 hPa | 0 mm | - | 473 W/m² | - |
| 1777250651 | 15.56° C | 55% | 1009.2 hPa | 0 mm | - | 473 W/m² | - |
| 1777249749 | 15° C | 60% | 1009.1 hPa | 0 mm | - | 312 W/m² | - |
| 1777248850 | 15° C | 61% | 1009.3 hPa | 0 mm | - | 625 W/m² | - |
* Rain latest hour (hover to see other rain measurements)
** Current wind speed in m/s (hover to see current wind gust speed)